This is the latest recevied weather packets stored in our database for station/object CE4ERM-13. If no packets are shown the sender has not sent any weather packets the latest 10 day(s).
| Time | Temp. | Humidity | Pressure | Rain* | Wind** | Luminosity | Snow |
|---|---|---|---|---|---|---|---|
| 1777528430 | 20.56° C | 42% | 1012.9 hPa | - | - | - | - |
| 1777527974 | 21.67° C | 43% | 1013.3 hPa | - | - | - | - |
| 1777527830 | 20.56° C | 42% | 1018.1 hPa | - | - | - | - |
| 1777527374 | 21.67° C | 43% | 1013.1 hPa | - | - | - | - |
| 1777526774 | 21.11° C | 44% | 1012.2 hPa | - | - | - | - |
| 1777526630 | 20.56° C | 42% | 1013.2 hPa | - | - | - | - |
| 1777526030 | 20.56° C | 41% | 1014.5 hPa | - | - | - | - |
| 1777525573 | 22.22° C | 43% | 1013.1 hPa | - | - | - | - |
| 1777525430 | 20.56° C | 41% | 1017.1 hPa | - | - | - | - |
| 1777524973 | 22.22° C | 43% | 1013 hPa | - | - | - | - |
| 1777524829 | 20.56° C | 41% | 1012.6 hPa | - | - | - | - |
| 1777524372 | 22.22° C | 41% | 1013 hPa | - | - | - | - |
| 1777524229 | 21.11° C | 41% | 1015.1 hPa | - | - | - | - |
| 1777523772 | 22.22° C | 43% | 1012.7 hPa | - | - | - | - |
| 1777523628 | 21.11° C | 41% | 1013.8 hPa | - | - | - | - |
| 1777523172 | 22.78° C | 42% | 1012 hPa | - | - | - | - |
| 1777523028 | 21.11° C | 41% | 1015.7 hPa | - | - | - | - |
| 1777522608 | 22.78° C | 42% | 1013.8 hPa | - | - | - | - |
| 1777522571 | 22.78° C | 42% | 1013.8 hPa | - | - | - | - |
| 1777522428 | 21.11° C | 41% | 1012.5 hPa | - | - | - | - |
| 1777521971 | 22.22° C | 44% | 1013.7 hPa | - | - | - | - |
| 1777521827 | 21.11° C | 41% | 1014.8 hPa | - | - | - | - |
| 1777521227 | 21.67° C | 41% | 1015.1 hPa | - | - | - | - |
| 1777520770 | 23.33° C | 41% | 1013.7 hPa | - | - | - | - |
| 1777520625 | 21.67° C | 41% | 1014.4 hPa | - | - | - | - |
* Rain since midnight (hover to see other rain measurements)
** Current wind speed in m/s (hover to see current wind gust speed)